Panguitch, Utah
Current Conditions -  °F | °C
As of 8:53 PM on Friday 19 Dec 2014 (Local Time) from KBCE Reporting Station
Overcast Overcast  
Wind Chill: 13°   Ceiling: 400
Heat Index: 20°   Visibility: 10mi
Dew Point: 18°   Wind: 5mph
Humidity: 92%   Direction: 250°WSW
Pressure: 30.19"   Gusts: NA
Location:  37.82°N, 112.44°W
Report Text: KBCE 200353Z AUTO 25004KT 10SM OVC004 M07/M08 A3019 RMK AO2 SLP241 T10671078
Loading
Personal Weather Stations






























Interactive Weather Map New forecast layout! Learn more

10-Day Weather Forecast

Advertisements
Track Severe Weather on mobile